Prainha, Brazil
Current Conditions -  °F | °C
As of 1:00 AM on Thursday 23 Oct 2014 (Local Time) from SBSN Reporting Station
Thunderstorm Thunderstorm  
Wind Chill: 77°   Ceiling: 10000
Heat Index: 78°   Visibility: 6mi
Dew Point: 73°   Wind: 7mph
Humidity: 89%   Direction: 190°S
Pressure: 29.83"   Gusts: NA
Location:  1.8°S, 53.48°W
Report Text: SBSN 230500Z 19006KT 9999 TS SCT017 FEW025CB BKN100 25/23 Q1010
Loading
Personal Weather Stations






























Interactive Weather Map
Tropical Storm Tracking
New forecast layout! Learn more

10-Day Weather Forecast

Advertisements
Track Severe Weather on mobile